Terminal Aerodrome Forecast
Issued by NWS Louisville, KY

Home | Current Version | Previous Version | Text Only | Print | Product List | Glossary On
Versions: 1 2 3 4 5 6 7 8 9 10 11 12 13 14 15 16 17
463
FTUS43 KLMK 132320
TAFLEX
TAF
KLEX 132320Z 1400/1424 06005KT P6SM FEW050 FEW250
     FM141300 VRB04KT P6SM VCSH BKN040 BKN080
     FM141600 VRB04KT P6SM SCT030 BKN060=

USA.gov is the U.S. government's official web portal to all federal, state and local government web resources and services.